createdAt,value
2023-04-26T00:00:02.740Z,68.00
2023-04-26T00:01:02.771Z,68.00
2023-04-26T00:02:02.899Z,68.00
2023-04-26T00:03:03.149Z,68.00
2023-04-26T00:04:02.644Z,68.00
2023-04-26T00:05:02.827Z,67.00
2023-04-26T00:06:02.457Z,67.00
2023-04-26T00:07:03.058Z,69.00
2023-04-26T00:08:02.952Z,69.00
2023-04-26T00:09:02.574Z,69.00
2023-04-26T00:10:02.623Z,70.00
2023-04-26T00:11:02.836Z,71.00
2023-04-26T00:12:02.216Z,72.00
2023-04-26T00:13:01.656Z,72.00
2023-04-26T00:14:02.027Z,72.00
2023-04-26T00:15:01.734Z,72.00
2023-04-26T00:16:02.117Z,73.00
2023-04-26T00:17:02.458Z,73.00
2023-04-26T00:18:01.990Z,73.00
2023-04-26T00:19:02.350Z,74.00
2023-04-26T00:20:02.155Z,74.00
2023-04-26T00:21:01.848Z,74.00
2023-04-26T00:22:02.605Z,73.00
2023-04-26T00:23:02.916Z,73.00
2023-04-26T00:24:02.820Z,73.00
2023-04-26T00:25:02.548Z,73.00
2023-04-26T00:26:02.740Z,72.00
2023-04-26T00:27:02.183Z,72.00
2023-04-26T00:28:02.201Z,73.00
2023-04-26T00:29:01.687Z,73.00
2023-04-26T00:30:02.069Z,73.00
2023-04-26T00:31:01.700Z,74.00
2023-04-26T00:32:02.571Z,74.00
2023-04-26T00:33:02.782Z,75.00
2023-04-26T00:34:02.435Z,75.00
2023-04-26T00:35:02.372Z,75.00
2023-04-26T00:36:02.144Z,74.00
2023-04-26T00:37:01.635Z,74.00
2023-04-26T00:38:01.985Z,74.00
2023-04-26T00:39:01.958Z,74.00
2023-04-26T00:40:01.888Z,74.00
2023-04-26T00:41:01.624Z,75.00
2023-04-26T00:42:02.282Z,76.00
2023-04-26T00:43:02.265Z,75.00
2023-04-26T00:44:02.060Z,75.00
2023-04-26T00:45:02.061Z,76.00
2023-04-26T00:46:02.609Z,76.00
2023-04-26T00:47:02.652Z,76.00
2023-04-26T00:48:02.689Z,77.00
2023-04-26T00:49:02.440Z,77.00
2023-04-26T00:50:02.638Z,76.00
2023-04-26T00:51:02.053Z,77.00
2023-04-26T00:52:01.519Z,77.00
2023-04-26T00:53:02.036Z,75.00
2023-04-26T00:54:01.835Z,74.00
2023-04-26T00:55:01.530Z,74.00
2023-04-26T00:56:01.890Z,75.00
2023-04-26T00:57:02.064Z,76.00
2023-04-26T00:58:02.056Z,76.00
2023-04-26T00:59:02.160Z,76.00
2023-04-26T01:00:01.757Z,76.00
2023-04-26T01:01:01.934Z,76.00
2023-04-26T01:02:01.712Z,76.00
2023-04-26T01:03:02.419Z,76.00
2023-04-26T01:04:02.382Z,76.00
2023-04-26T01:05:02.015Z,75.00
2023-04-26T01:06:02.060Z,74.00
2023-04-26T01:07:02.955Z,75.00
2023-04-26T01:08:02.816Z,76.00
2023-04-26T01:09:02.563Z,76.00
2023-04-26T01:10:02.520Z,76.00
2023-04-26T01:11:02.494Z,76.00
2023-04-26T01:12:01.932Z,76.00
2023-04-26T01:13:02.325Z,76.00
2023-04-26T01:14:02.231Z,76.00
2023-04-26T01:15:01.839Z,76.00
2023-04-26T01:16:02.254Z,76.00
2023-04-26T01:17:02.031Z,75.00
2023-04-26T01:18:02.198Z,74.00
2023-04-26T01:19:02.000Z,74.00
2023-04-26T01:20:02.394Z,73.00
2023-04-26T01:21:03.475Z,73.00
2023-04-26T01:22:02.458Z,72.00
2023-04-26T01:23:02.288Z,72.00
2023-04-26T01:24:02.664Z,73.00
2023-04-26T01:25:02.589Z,73.00
2023-04-26T01:26:02.763Z,73.00
2023-04-26T01:27:02.772Z,74.00
2023-04-26T01:28:02.889Z,75.00
2023-04-26T01:29:02.777Z,76.00
2023-04-26T01:30:02.414Z,75.00
2023-04-26T01:31:02.882Z,75.00
2023-04-26T01:32:02.119Z,74.00
2023-04-26T01:33:02.144Z,75.00
2023-04-26T01:34:01.877Z,77.00
2023-04-26T01:35:01.925Z,76.00
2023-04-26T01:36:02.468Z,77.00
2023-04-26T01:37:02.381Z,77.00
2023-04-26T01:38:02.588Z,77.00
2023-04-26T01:39:02.366Z,75.00
2023-04-26T01:40:02.735Z,75.00
2023-04-26T01:41:02.504Z,74.00
2023-04-26T01:42:02.295Z,74.00
2023-04-26T01:43:01.985Z,74.00
2023-04-26T01:44:01.961Z,74.00
2023-04-26T01:45:02.317Z,74.00
2023-04-26T01:46:01.774Z,74.00
2023-04-26T01:47:02.481Z,74.00
2023-04-26T01:48:02.641Z,75.00
2023-04-26T01:49:02.240Z,75.00
2023-04-26T01:50:02.535Z,75.00
2023-04-26T01:51:02.240Z,75.00
2023-04-26T01:52:01.863Z,75.00
2023-04-26T01:53:01.574Z,75.00
2023-04-26T01:54:01.345Z,75.00
2023-04-26T01:55:01.838Z,75.00
2023-04-26T01:56:01.521Z,75.00
2023-04-26T01:57:01.838Z,75.00
2023-04-26T01:58:02.225Z,75.00
2023-04-26T01:59:01.637Z,75.00
2023-04-26T02:00:01.911Z,74.00
2023-04-26T02:01:02.039Z,74.00
2023-04-26T02:02:02.087Z,73.00
2023-04-26T02:03:02.053Z,73.00
2023-04-26T02:04:01.863Z,73.00
2023-04-26T02:05:02.286Z,73.00
2023-04-26T02:06:01.876Z,73.00
2023-04-26T02:07:02.427Z,73.00
2023-04-26T02:08:02.108Z,74.00
2023-04-26T02:09:02.696Z,73.00
2023-04-26T02:10:02.186Z,73.00
2023-04-26T02:11:02.327Z,74.00
2023-04-26T02:12:01.825Z,74.00
2023-04-26T02:13:02.031Z,73.00
2023-04-26T02:14:01.896Z,73.00
2023-04-26T02:15:01.746Z,73.00
2023-04-26T02:16:02.151Z,73.00
2023-04-26T02:17:02.775Z,73.00
2023-04-26T02:18:02.272Z,74.00
2023-04-26T02:19:02.191Z,75.00
2023-04-26T02:20:02.484Z,76.00
2023-04-26T02:21:02.749Z,76.00
2023-04-26T02:22:02.193Z,76.00
2023-04-26T02:23:01.606Z,76.00
2023-04-26T02:24:01.958Z,76.00
2023-04-26T02:25:02.123Z,75.00
2023-04-26T02:26:01.656Z,74.00
2023-04-26T02:27:01.915Z,73.00
2023-04-26T02:28:01.810Z,73.00
2023-04-26T02:29:02.312Z,73.00
2023-04-26T02:30:01.750Z,73.00
2023-04-26T02:31:02.070Z,72.00
2023-04-26T02:32:02.064Z,72.00
2023-04-26T02:33:02.759Z,72.00
2023-04-26T02:34:02.368Z,73.00
2023-04-26T02:35:02.666Z,73.00
2023-04-26T02:36:02.176Z,73.00
2023-04-26T02:37:01.631Z,73.00
2023-04-26T02:38:01.458Z,73.00
2023-04-26T02:39:01.659Z,72.00
2023-04-26T02:40:01.656Z,72.00
2023-04-26T02:41:01.648Z,72.00
2023-04-26T02:42:01.702Z,73.00
2023-04-26T02:43:01.750Z,73.00
2023-04-26T02:44:01.226Z,74.00
2023-04-26T02:45:01.762Z,74.00
2023-04-26T02:46:01.552Z,74.00
2023-04-26T02:47:01.858Z,74.00
2023-04-26T02:48:01.769Z,74.00
2023-04-26T02:49:01.493Z,73.00
2023-04-26T02:50:01.835Z,73.00
2023-04-26T02:51:01.842Z,73.00
2023-04-26T02:52:01.912Z,73.00
2023-04-26T02:53:02.315Z,74.00
2023-04-26T02:54:01.730Z,74.00
2023-04-26T02:55:01.768Z,74.00
2023-04-26T02:56:02.127Z,74.00
2023-04-26T02:57:01.941Z,75.00
2023-04-26T02:58:02.011Z,75.00
2023-04-26T02:59:02.100Z,76.00
2023-04-26T03:00:02.388Z,76.00
2023-04-26T03:01:02.204Z,76.00
2023-04-26T03:02:01.395Z,75.00
2023-04-26T03:03:01.453Z,75.00
2023-04-26T03:04:01.570Z,75.00
2023-04-26T03:05:01.165Z,75.00
2023-04-26T03:06:01.600Z,75.00
2023-04-26T03:07:02.058Z,75.00
2023-04-26T03:08:02.116Z,76.00
2023-04-26T03:09:01.728Z,77.00
2023-04-26T03:10:01.460Z,78.00
2023-04-26T03:11:01.854Z,79.00
2023-04-26T03:12:02.373Z,79.00
2023-04-26T03:13:02.224Z,78.00
2023-04-26T03:14:02.317Z,79.00
2023-04-26T03:15:01.792Z,79.00
2023-04-26T03:16:02.025Z,79.00
2023-04-26T03:17:01.663Z,79.00
2023-04-26T03:18:01.221Z,80.00
2023-04-26T03:19:01.493Z,80.00
2023-04-26T03:20:02.804Z,81.00
2023-04-26T03:21:01.583Z,81.00
2023-04-26T03:22:01.824Z,82.00
2023-04-26T03:23:01.145Z,82.00
2023-04-26T03:24:01.431Z,82.00
2023-04-26T03:25:01.253Z,82.00
2023-04-26T03:26:01.248Z,81.00
2023-04-26T03:27:02.311Z,81.00
2023-04-26T03:28:02.206Z,81.00
2023-04-26T03:29:01.864Z,82.00
2023-04-26T03:30:01.840Z,81.00
2023-04-26T03:31:02.324Z,81.00
2023-04-26T03:32:01.302Z,80.00
2023-04-26T03:33:01.109Z,81.00
2023-04-26T03:34:01.394Z,81.00
2023-04-26T03:35:01.193Z,81.00
2023-04-26T03:36:00.897Z,81.00
2023-04-26T03:37:01.389Z,80.00
2023-04-26T03:38:01.777Z,79.00
2023-04-26T03:39:01.509Z,79.00
2023-04-26T03:40:01.870Z,79.00
2023-04-26T03:41:01.510Z,79.00
2023-04-26T03:42:01.446Z,79.00
2023-04-26T03:43:00.976Z,79.00
2023-04-26T03:44:01.457Z,79.00
2023-04-26T03:45:01.382Z,80.00
2023-04-26T03:46:01.234Z,80.00
2023-04-26T03:47:01.503Z,80.00
2023-04-26T03:48:01.781Z,80.00
2023-04-26T03:49:01.802Z,80.00
2023-04-26T03:50:01.564Z,81.00
2023-04-26T03:51:01.970Z,80.00
2023-04-26T03:52:00.993Z,80.00
2023-04-26T03:53:00.803Z,80.00
2023-04-26T03:54:01.132Z,79.00
2023-04-26T03:55:01.409Z,79.00
2023-04-26T03:56:00.899Z,78.00
2023-04-26T03:57:01.242Z,78.00
2023-04-26T03:58:01.801Z,78.00
2023-04-26T03:59:01.290Z,78.00
2023-04-26T04:00:01.704Z,78.00
2023-04-26T04:01:01.576Z,78.00
2023-04-26T04:02:03.224Z,78.00
2023-04-26T04:03:03.684Z,79.00
2023-04-26T04:04:03.475Z,78.00
2023-04-26T04:05:03.591Z,78.00
2023-04-26T04:06:03.819Z,79.00
2023-04-26T04:07:03.100Z,79.00
2023-04-26T04:08:02.852Z,80.00
2023-04-26T04:09:03.227Z,79.00
2023-04-26T04:10:02.956Z,79.00
2023-04-26T04:11:03.374Z,80.00
2023-04-26T04:12:02.659Z,80.00
2023-04-26T04:13:02.943Z,80.00
2023-04-26T04:14:02.803Z,80.00
2023-04-26T04:15:02.664Z,80.00
2023-04-26T04:16:02.376Z,80.00
2023-04-26T04:17:02.808Z,80.00
2023-04-26T04:18:02.707Z,80.00
2023-04-26T04:19:02.646Z,80.00
2023-04-26T04:20:03.144Z,80.00
2023-04-26T04:21:02.818Z,80.00
2023-04-26T04:22:03.240Z,80.00
2023-04-26T04:23:03.176Z,79.00
2023-04-26T04:24:03.713Z,79.00
2023-04-26T04:25:03.192Z,78.00
2023-04-26T04:26:03.210Z,78.00
2023-04-26T04:27:02.524Z,79.00
2023-04-26T04:28:02.526Z,78.00
2023-04-26T04:29:02.422Z,78.00
2023-04-26T04:30:02.617Z,78.00
2023-04-26T04:31:02.454Z,79.00
2023-04-26T04:32:02.916Z,79.00
2023-04-26T04:33:02.665Z,79.00
2023-04-26T04:34:02.637Z,79.00
2023-04-26T04:35:03.218Z,79.00
2023-04-26T04:36:03.010Z,79.00
2023-04-26T04:37:02.819Z,78.00
2023-04-26T04:38:02.994Z,78.00
2023-04-26T04:39:02.864Z,77.00
2023-04-26T04:40:02.988Z,78.00
2023-04-26T04:41:02.985Z,78.00
2023-04-26T04:42:02.803Z,78.00
2023-04-26T04:43:03.218Z,79.00
2023-04-26T04:44:02.925Z,77.00
2023-04-26T04:45:02.790Z,76.00
2023-04-26T04:46:02.683Z,76.00
2023-04-26T04:47:03.024Z,76.00
2023-04-26T04:48:03.020Z,77.00
2023-04-26T04:49:02.893Z,77.00
2023-04-26T04:50:03.011Z,77.00
2023-04-26T04:51:02.881Z,77.00
2023-04-26T04:52:03.480Z,77.00
2023-04-26T04:53:03.339Z,77.00
2023-04-26T04:54:03.386Z,77.00
2023-04-26T04:55:03.239Z,77.00
2023-04-26T04:56:03.334Z,77.00
2023-04-26T04:57:02.893Z,77.00
2023-04-26T04:58:02.658Z,77.00
2023-04-26T04:59:02.601Z,78.00
2023-04-26T05:00:03.130Z,77.00
2023-04-26T05:01:03.272Z,77.00
2023-04-26T05:02:03.275Z,78.00
2023-04-26T05:03:03.284Z,78.00
2023-04-26T05:04:03.424Z,78.00
2023-04-26T05:05:03.204Z,78.00
2023-04-26T05:06:03.298Z,78.00
2023-04-26T05:07:02.789Z,78.00
2023-04-26T05:08:02.643Z,78.00
2023-04-26T05:09:02.756Z,79.00
2023-04-26T05:10:02.655Z,79.00
2023-04-26T05:11:02.542Z,79.00
2023-04-26T05:12:03.154Z,79.00
2023-04-26T05:13:02.995Z,79.00
2023-04-26T05:14:02.879Z,79.00
2023-04-26T05:15:03.258Z,79.00
2023-04-26T05:16:02.829Z,79.00
2023-04-26T05:17:03.616Z,79.00
2023-04-26T05:18:03.454Z,79.00
2023-04-26T05:19:03.677Z,79.00
2023-04-26T05:20:03.823Z,79.00
2023-04-26T05:21:03.433Z,79.00
2023-04-26T05:22:03.181Z,79.00
2023-04-26T05:23:02.772Z,78.00
2023-04-26T05:24:02.609Z,78.00
2023-04-26T05:25:03.237Z,78.00
2023-04-26T05:26:03.134Z,78.00
2023-04-26T05:27:02.742Z,78.00
2023-04-26T05:28:02.847Z,77.00
2023-04-26T05:29:02.307Z,77.00
2023-04-26T05:30:02.826Z,77.00
2023-04-26T05:31:02.606Z,77.00
2023-04-26T05:32:02.649Z,78.00
2023-04-26T05:33:02.832Z,78.00
2023-04-26T05:34:03.084Z,78.00
2023-04-26T05:35:03.210Z,79.00
2023-04-26T05:36:02.837Z,79.00
2023-04-26T05:37:03.082Z,79.00
2023-04-26T05:38:02.984Z,79.00
2023-04-26T05:39:03.462Z,79.00
2023-04-26T05:40:03.479Z,79.00
2023-04-26T05:41:03.452Z,79.00
2023-04-26T05:42:02.857Z,79.00
2023-04-26T05:43:03.149Z,79.00
2023-04-26T05:44:02.850Z,81.00
2023-04-26T05:45:02.721Z,80.00
2023-04-26T05:46:02.755Z,81.00
2023-04-26T05:47:03.363Z,80.00
2023-04-26T05:48:03.043Z,79.00
2023-04-26T05:49:02.942Z,79.00
2023-04-26T05:50:02.774Z,80.00
2023-04-26T05:51:03.281Z,80.00
2023-04-26T05:52:02.782Z,80.00
2023-04-26T05:53:02.468Z,78.00
2023-04-26T05:54:02.672Z,78.00
2023-04-26T05:55:02.609Z,78.00
2023-04-26T05:56:02.171Z,77.00
2023-04-26T05:57:02.370Z,79.00
2023-04-26T05:58:02.513Z,79.00
2023-04-26T05:59:02.656Z,78.00
2023-04-26T06:00:02.821Z,78.00
2023-04-26T06:01:02.827Z,78.00
2023-04-26T06:02:02.190Z,77.00
2023-04-26T06:03:02.251Z,76.00
2023-04-26T06:04:02.379Z,77.00
2023-04-26T06:05:01.996Z,77.00
2023-04-26T06:06:01.552Z,76.00
2023-04-26T06:07:02.203Z,77.00
2023-04-26T06:08:02.088Z,75.00
2023-04-26T06:09:02.011Z,75.00
2023-04-26T06:10:02.078Z,75.00
2023-04-26T06:11:01.754Z,75.00
2023-04-26T06:12:01.715Z,75.00
2023-04-26T06:13:02.311Z,75.00
2023-04-26T06:14:01.836Z,75.00
2023-04-26T06:15:02.092Z,75.00
2023-04-26T06:16:01.913Z,75.00
2023-04-26T06:17:02.794Z,75.00
2023-04-26T06:18:02.202Z,75.00
2023-04-26T06:19:02.086Z,74.00
2023-04-26T06:20:02.076Z,74.00
2023-04-26T06:21:02.386Z,73.00
2023-04-26T06:22:01.756Z,73.00
2023-04-26T06:23:02.159Z,73.00
2023-04-26T06:24:02.065Z,73.00
2023-04-26T06:25:01.868Z,71.00
2023-04-26T06:26:01.607Z,70.00
2023-04-26T06:27:01.987Z,70.00
2023-04-26T06:28:02.088Z,70.00
2023-04-26T06:29:01.921Z,71.00
2023-04-26T06:30:02.549Z,71.00
2023-04-26T06:31:02.225Z,71.00
2023-04-26T06:32:02.385Z,70.00
2023-04-26T06:33:02.583Z,70.00
2023-04-26T06:34:02.356Z,69.00
2023-04-26T06:35:02.599Z,69.00
2023-04-26T06:36:02.670Z,69.00
2023-04-26T06:37:02.320Z,70.00
2023-04-26T06:38:02.343Z,69.00
2023-04-26T06:39:02.309Z,69.00
2023-04-26T06:40:02.578Z,69.00
2023-04-26T06:41:02.746Z,69.00
2023-04-26T06:42:02.168Z,69.00
2023-04-26T06:43:02.353Z,67.00
2023-04-26T06:44:02.399Z,67.00
2023-04-26T06:45:02.629Z,66.00
2023-04-26T06:46:02.322Z,67.00
2023-04-26T06:47:01.585Z,67.00
2023-04-26T06:48:02.154Z,67.00
2023-04-26T06:49:01.845Z,66.00
2023-04-26T06:50:02.162Z,66.00
2023-04-26T06:51:01.862Z,66.00
2023-04-26T06:52:01.919Z,64.00
2023-04-26T06:53:02.112Z,63.00
2023-04-26T06:54:02.315Z,63.00
2023-04-26T06:55:02.342Z,64.00
2023-04-26T06:56:01.844Z,64.00
2023-04-26T06:57:01.726Z,64.00
2023-04-26T06:58:01.673Z,64.00
2023-04-26T06:59:01.734Z,64.00
2023-04-26T07:00:01.664Z,63.00
2023-04-26T07:01:01.697Z,63.00
2023-04-26T07:02:02.074Z,64.00
2023-04-26T07:03:02.458Z,62.00
2023-04-26T07:04:02.126Z,62.00
2023-04-26T07:05:02.298Z,62.00
2023-04-26T07:06:02.129Z,63.00
2023-04-26T07:07:02.049Z,62.00
2023-04-26T07:08:02.065Z,62.00
2023-04-26T07:09:01.967Z,62.00
2023-04-26T07:10:02.530Z,62.00
2023-04-26T07:11:01.933Z,62.00
2023-04-26T07:12:02.754Z,63.00
2023-04-26T07:13:02.468Z,62.00
2023-04-26T07:14:02.329Z,61.00
2023-04-26T07:15:02.190Z,60.00
2023-04-26T07:16:02.445Z,61.00
2023-04-26T07:17:02.480Z,61.00
2023-04-26T07:18:02.390Z,61.00
2023-04-26T07:19:02.684Z,61.00
2023-04-26T07:20:02.369Z,61.00
2023-04-26T07:21:02.408Z,61.00
2023-04-26T07:22:02.169Z,62.00
2023-04-26T07:23:02.122Z,60.00
2023-04-26T07:24:01.959Z,60.00
2023-04-26T07:25:02.578Z,59.00
2023-04-26T07:26:02.071Z,59.00
2023-04-26T07:27:01.855Z,59.00
2023-04-26T07:28:02.226Z,59.00
2023-04-26T07:29:01.716Z,59.00
2023-04-26T07:30:01.839Z,59.00
2023-04-26T07:31:01.959Z,60.00
2023-04-26T07:32:01.731Z,59.00
2023-04-26T07:33:02.309Z,59.00
2023-04-26T07:34:01.754Z,59.00
2023-04-26T07:35:01.974Z,60.00
2023-04-26T07:36:01.625Z,57.00
2023-04-26T07:37:02.785Z,56.00
2023-04-26T07:38:02.251Z,56.00
2023-04-26T07:39:02.111Z,56.00
2023-04-26T07:40:02.286Z,57.00
2023-04-26T07:41:02.565Z,57.00
2023-04-26T07:42:01.956Z,58.00
2023-04-26T07:43:02.051Z,58.00
2023-04-26T07:44:02.065Z,59.00
2023-04-26T07:45:02.040Z,58.00
2023-04-26T07:46:02.220Z,56.00
2023-04-26T07:47:02.187Z,56.00
2023-04-26T07:48:02.406Z,57.00
2023-04-26T07:49:02.059Z,57.00
2023-04-26T07:50:02.353Z,56.00
2023-04-26T07:51:02.207Z,55.00
2023-04-26T07:52:01.660Z,56.00
2023-04-26T07:53:01.778Z,57.00
2023-04-26T07:54:01.426Z,56.00
2023-04-26T07:55:01.666Z,57.00
2023-04-26T07:56:01.653Z,56.00
2023-04-26T07:57:01.948Z,54.00
2023-04-26T07:58:02.241Z,54.00
2023-04-26T07:59:02.055Z,55.00
2023-04-26T08:00:02.312Z,55.00
2023-04-26T08:01:02.173Z,55.00
2023-04-26T08:02:02.595Z,55.00
2023-04-26T08:03:02.387Z,55.00
2023-04-26T08:04:02.848Z,55.00
2023-04-26T08:05:02.405Z,56.00
2023-04-26T08:06:02.193Z,56.00
2023-04-26T08:07:02.876Z,55.00
2023-04-26T08:08:02.931Z,55.00
2023-04-26T08:09:02.640Z,54.00
2023-04-26T08:10:02.551Z,54.00
2023-04-26T08:11:02.529Z,54.00
2023-04-26T08:12:03.343Z,54.00
2023-04-26T08:13:03.412Z,53.00
2023-04-26T08:14:03.389Z,53.00
2023-04-26T08:15:03.372Z,54.00
2023-04-26T08:16:03.099Z,54.00
2023-04-26T08:17:02.073Z,52.00
2023-04-26T08:18:02.119Z,53.00
2023-04-26T08:19:02.037Z,53.00
2023-04-26T08:20:02.335Z,53.00
2023-04-26T08:21:02.011Z,53.00
2023-04-26T08:22:02.873Z,52.00
2023-04-26T08:23:02.728Z,53.00
2023-04-26T08:24:02.518Z,52.00
2023-04-26T08:25:02.491Z,51.00
2023-04-26T08:26:02.678Z,51.00
2023-04-26T08:27:03.074Z,51.00
2023-04-26T08:28:02.814Z,52.00
2023-04-26T08:29:02.759Z,50.00
2023-04-26T08:30:02.689Z,51.00
2023-04-26T08:31:03.123Z,51.00
2023-04-26T08:32:02.660Z,52.00
2023-04-26T08:33:02.216Z,52.00
2023-04-26T08:34:02.532Z,52.00
2023-04-26T08:35:02.253Z,52.00
2023-04-26T08:36:02.174Z,52.00
2023-04-26T08:37:02.561Z,50.00
2023-04-26T08:38:02.670Z,50.00
2023-04-26T08:39:02.666Z,50.00
2023-04-26T08:40:02.583Z,51.00
2023-04-26T08:41:02.561Z,50.00
2023-04-26T08:42:03.250Z,51.00
2023-04-26T08:43:03.323Z,51.00
2023-04-26T08:44:02.983Z,50.00
2023-04-26T08:45:03.108Z,51.00
2023-04-26T08:46:02.840Z,52.00
2023-04-26T08:47:03.328Z,51.00
2023-04-26T08:48:04.655Z,50.00
2023-04-26T08:49:03.278Z,51.00
2023-04-26T08:50:02.812Z,50.00
2023-04-26T08:51:03.317Z,50.00
2023-04-26T08:52:02.711Z,49.00
2023-04-26T08:53:02.628Z,49.00
2023-04-26T08:54:04.158Z,49.00
2023-04-26T08:55:02.509Z,48.00
2023-04-26T08:56:02.766Z,49.00
2023-04-26T08:57:03.464Z,48.00
2023-04-26T08:58:03.353Z,47.00
2023-04-26T08:59:03.388Z,48.00
2023-04-26T09:00:02.934Z,47.00
2023-04-26T09:01:02.994Z,49.00
2023-04-26T09:02:03.114Z,49.00
2023-04-26T09:03:02.800Z,48.00
2023-04-26T09:04:03.309Z,48.00
2023-04-26T09:05:03.099Z,46.00
2023-04-26T09:06:04.586Z,47.00
2023-04-26T09:07:02.388Z,47.00
2023-04-26T09:08:02.191Z,46.00
2023-04-26T09:09:02.122Z,46.00
2023-04-26T09:10:02.270Z,47.00
2023-04-26T09:11:02.250Z,46.00
2023-04-26T09:12:02.954Z,46.00
2023-04-26T09:13:02.686Z,46.00
2023-04-26T09:14:02.970Z,46.00
2023-04-26T09:15:02.856Z,47.00
2023-04-26T09:16:04.955Z,47.00
2023-04-26T09:17:03.015Z,46.00
2023-04-26T09:18:03.251Z,46.00
2023-04-26T09:19:03.023Z,45.00
2023-04-26T09:20:02.798Z,45.00
2023-04-26T09:21:02.677Z,45.00
2023-04-26T09:22:02.049Z,44.00
2023-04-26T09:23:02.129Z,44.00
2023-04-26T09:24:02.507Z,44.00
2023-04-26T09:25:02.166Z,46.00
2023-04-26T09:26:02.125Z,45.00
2023-04-26T09:27:02.591Z,46.00
2023-04-26T09:28:02.455Z,45.00
2023-04-26T09:29:02.373Z,45.00
2023-04-26T09:30:02.424Z,44.00
2023-04-26T09:31:02.857Z,46.00
2023-04-26T09:32:02.612Z,44.00
2023-04-26T09:33:02.584Z,44.00
2023-04-26T09:34:03.101Z,43.00
2023-04-26T09:35:02.972Z,45.00
2023-04-26T09:36:03.150Z,44.00
2023-04-26T09:37:02.125Z,44.00
2023-04-26T09:38:07.409Z,44.00
2023-04-26T09:39:01.838Z,43.00
2023-04-26T09:40:01.818Z,43.00
2023-04-26T09:41:02.101Z,42.00
2023-04-26T09:42:02.880Z,42.00
2023-04-26T09:43:02.315Z,41.00
2023-04-26T09:44:02.329Z,42.00
2023-04-26T09:45:02.825Z,40.00
2023-04-26T09:46:02.491Z,41.00
2023-04-26T09:47:02.691Z,42.00
2023-04-26T09:48:02.919Z,42.00
2023-04-26T09:49:02.496Z,41.00
2023-04-26T09:50:02.988Z,42.00
2023-04-26T09:51:02.635Z,42.00
2023-04-26T09:52:01.840Z,41.00
2023-04-26T09:53:02.268Z,41.00
2023-04-26T09:54:02.232Z,40.00
2023-04-26T09:55:02.294Z,40.00
2023-04-26T09:56:02.092Z,41.00
2023-04-26T09:57:02.118Z,40.00
2023-04-26T09:58:02.265Z,40.00
2023-04-26T09:59:02.003Z,40.00
2023-04-26T10:00:02.475Z,40.00
2023-04-26T10:01:02.647Z,40.00
2023-04-26T10:02:02.621Z,39.00
2023-04-26T10:03:02.996Z,41.00
2023-04-26T10:04:02.632Z,42.00
2023-04-26T10:05:02.639Z,41.00
2023-04-26T10:06:03.141Z,40.00
2023-04-26T10:07:03.110Z,39.00
2023-04-26T10:08:02.722Z,41.00
2023-04-26T10:09:02.705Z,38.00
2023-04-26T10:10:02.589Z,38.00
2023-04-26T10:11:03.180Z,39.00
2023-04-26T10:12:02.866Z,38.00
2023-04-26T10:13:02.903Z,38.00
2023-04-26T10:14:03.042Z,37.00
2023-04-26T10:15:02.917Z,35.00
2023-04-26T10:16:02.909Z,36.00
2023-04-26T10:17:03.108Z,37.00
2023-04-26T10:18:03.230Z,37.00
2023-04-26T10:19:03.095Z,38.00
2023-04-26T10:20:03.056Z,39.00
2023-04-26T10:21:03.123Z,40.00
2023-04-26T10:22:02.421Z,39.00
2023-04-26T10:23:02.598Z,39.00
2023-04-26T10:24:02.506Z,39.00
2023-04-26T10:25:02.668Z,38.00
2023-04-26T10:26:02.224Z,38.00
2023-04-26T10:27:02.974Z,38.00
2023-04-26T10:28:03.073Z,40.00
2023-04-26T10:29:03.586Z,39.00
2023-04-26T10:30:02.793Z,40.00
2023-04-26T10:31:03.006Z,40.00
2023-04-26T10:32:03.661Z,41.00
2023-04-26T10:33:03.581Z,42.00
2023-04-26T10:34:03.516Z,43.00
2023-04-26T10:35:03.450Z,42.00
2023-04-26T10:36:03.480Z,41.00
2023-04-26T10:37:02.720Z,41.00
2023-04-26T10:38:02.672Z,39.00
2023-04-26T10:39:02.622Z,39.00
2023-04-26T10:40:02.904Z,39.00
2023-04-26T10:41:02.734Z,39.00
2023-04-26T10:42:03.229Z,40.00
2023-04-26T10:43:03.223Z,40.00
2023-04-26T10:44:03.337Z,38.00
2023-04-26T10:45:03.362Z,40.00
2023-04-26T10:46:03.477Z,37.00
2023-04-26T10:47:02.728Z,38.00
2023-04-26T10:48:02.844Z,38.00
2023-04-26T10:49:02.474Z,38.00
2023-04-26T10:50:04.365Z,37.00
2023-04-26T10:51:02.862Z,35.00
2023-04-26T10:52:03.082Z,36.00
2023-04-26T10:53:03.440Z,36.00
2023-04-26T10:54:03.422Z,36.00
2023-04-26T10:55:03.007Z,36.00
2023-04-26T10:56:02.971Z,35.00
2023-04-26T10:57:03.472Z,37.00
2023-04-26T10:58:03.663Z,37.00
2023-04-26T10:59:06.345Z,36.00
2023-04-26T11:00:03.376Z,36.00
2023-04-26T11:01:03.474Z,37.00
2023-04-26T11:02:03.439Z,36.00
2023-04-26T11:03:02.850Z,37.00
2023-04-26T11:04:03.320Z,37.00
2023-04-26T11:05:03.424Z,38.00
2023-04-26T11:06:02.935Z,38.00
2023-04-26T11:07:03.187Z,38.00
2023-04-26T11:08:03.299Z,36.00
2023-04-26T11:09:03.382Z,36.00
2023-04-26T11:10:03.050Z,35.00
2023-04-26T11:11:03.026Z,34.00
2023-04-26T11:12:02.863Z,35.00
2023-04-26T11:13:02.822Z,36.00
2023-04-26T11:14:03.003Z,37.00
2023-04-26T11:15:02.703Z,36.00
2023-04-26T11:16:03.125Z,35.00
2023-04-26T11:17:03.234Z,36.00
2023-04-26T11:18:03.335Z,38.00
2023-04-26T11:19:03.158Z,37.00
2023-04-26T11:20:03.145Z,37.00
2023-04-26T11:21:03.275Z,35.00
2023-04-26T11:22:02.632Z,35.00
2023-04-26T11:23:02.687Z,35.00
2023-04-26T11:24:02.513Z,36.00
2023-04-26T11:25:02.616Z,35.00
2023-04-26T11:26:02.293Z,35.00
2023-04-26T11:27:02.931Z,35.00
2023-04-26T11:28:03.002Z,34.00
2023-04-26T11:29:02.945Z,34.00
2023-04-26T11:30:02.842Z,34.00
2023-04-26T11:31:03.185Z,34.00
2023-04-26T11:32:03.469Z,35.00
2023-04-26T11:33:03.521Z,36.00
2023-04-26T11:34:03.248Z,34.00
2023-04-26T11:35:03.249Z,35.00
2023-04-26T11:36:03.506Z,35.00
2023-04-26T11:37:03.077Z,33.00
2023-04-26T11:38:03.158Z,33.00
2023-04-26T11:39:02.997Z,33.00
2023-04-26T11:40:02.691Z,34.00
2023-04-26T11:41:02.661Z,33.00
2023-04-26T11:42:03.549Z,33.00
2023-04-26T11:43:03.653Z,35.00
2023-04-26T11:44:03.436Z,33.00
2023-04-26T11:45:03.507Z,35.00
2023-04-26T11:46:03.400Z,34.00
2023-04-26T11:47:03.207Z,35.00
2023-04-26T11:48:02.629Z,34.00
2023-04-26T11:49:02.499Z,34.00
2023-04-26T11:50:02.606Z,34.00
2023-04-26T11:51:02.648Z,34.00
2023-04-26T11:52:03.542Z,36.00
2023-04-26T11:53:03.020Z,33.00
2023-04-26T11:54:03.271Z,32.00
2023-04-26T11:55:03.341Z,34.00
2023-04-26T11:56:03.510Z,34.00
2023-04-26T11:57:02.993Z,33.00
2023-04-26T11:58:02.721Z,33.00
2023-04-26T11:59:02.697Z,33.00
2023-04-26T12:00:02.533Z,33.00
2023-04-26T12:01:03.009Z,33.00
2023-04-26T12:02:03.360Z,33.00
2023-04-26T12:03:03.452Z,34.00
2023-04-26T12:04:02.857Z,33.00
2023-04-26T12:05:03.248Z,33.00
2023-04-26T12:06:03.081Z,33.00
2023-04-26T12:07:03.659Z,34.00
2023-04-26T12:08:03.048Z,34.00
2023-04-26T12:09:03.538Z,32.00
2023-04-26T12:10:03.623Z,31.00
2023-04-26T12:11:03.396Z,32.00
2023-04-26T12:12:02.548Z,32.00
2023-04-26T12:13:02.856Z,32.00
2023-04-26T12:14:02.772Z,32.00
2023-04-26T12:15:02.922Z,31.00
2023-04-26T12:16:07.305Z,33.00
2023-04-26T12:17:02.679Z,31.00
2023-04-26T12:18:02.710Z,32.00
2023-04-26T12:19:02.779Z,31.00
2023-04-26T12:20:03.288Z,31.00
2023-04-26T12:21:03.081Z,33.00
2023-04-26T12:22:03.149Z,32.00
2023-04-26T12:23:03.442Z,32.00
2023-04-26T12:24:03.798Z,32.00
2023-04-26T12:25:03.564Z,32.00
2023-04-26T12:26:03.312Z,32.00
2023-04-26T12:27:03.625Z,31.00
2023-04-26T12:28:02.759Z,32.00
2023-04-26T12:29:02.868Z,32.00
2023-04-26T12:30:03.141Z,33.00
2023-04-26T12:31:02.864Z,33.00
2023-04-26T12:32:03.013Z,32.00
2023-04-26T12:34:03.559Z,30.00
2023-04-26T12:35:03.511Z,30.00
2023-04-26T12:36:03.326Z,31.00
2023-04-26T12:37:03.409Z,30.00
2023-04-26T12:38:02.852Z,29.00
2023-04-26T12:39:03.095Z,31.00
2023-04-26T12:40:03.052Z,31.00
2023-04-26T12:41:03.213Z,30.00
2023-04-26T12:42:02.586Z,31.00
2023-04-26T12:43:03.317Z,31.00
2023-04-26T12:44:03.133Z,30.00
2023-04-26T12:45:03.705Z,29.00
2023-04-26T12:46:03.215Z,29.00
2023-04-26T12:47:03.337Z,29.00
2023-04-26T12:48:03.048Z,29.00
2023-04-26T12:49:03.312Z,29.00
2023-04-26T12:50:02.974Z,28.00
2023-04-26T12:51:03.172Z,28.00
2023-04-26T12:52:03.116Z,30.00
2023-04-26T12:53:02.416Z,28.00